sensor_id;sensor_type;location;lat;lon;timestamp;temperature;humidity
14397;DHT22;50653;47.810;13.022;2023-08-30T00:00:15;13.40;99.90
14397;DHT22;50653;47.810;13.022;2023-08-30T00:02:43;13.30;99.90
14397;DHT22;50653;47.810;13.022;2023-08-30T00:05:09;13.30;99.90
14397;DHT22;50653;47.810;13.022;2023-08-30T00:07:35;13.20;99.90
14397;DHT22;50653;47.810;13.022;2023-08-30T00:10:01;13.30;99.90
14397;DHT22;50653;47.810;13.022;2023-08-30T00:12:27;13.30;99.90
14397;DHT22;50653;47.810;13.022;2023-08-30T00:14:53;13.30;99.90
14397;DHT22;50653;47.810;13.022;2023-08-30T00:17:19;13.30;99.90
14397;DHT22;50653;47.810;13.022;2023-08-30T00:19:45;13.20;99.90
14397;DHT22;50653;47.810;13.022;2023-08-30T00:22:11;13.30;99.90
14397;DHT22;50653;47.810;13.022;2023-08-30T00:24:37;13.30;99.90
14397;DHT22;50653;47.810;13.022;2023-08-30T00:27:03;13.30;99.90
14397;DHT22;50653;47.810;13.022;2023-08-30T00:29:29;13.30;99.90
14397;DHT22;50653;47.810;13.022;2023-08-30T00:31:55;13.30;99.90
14397;DHT22;50653;47.810;13.022;2023-08-30T00:34:21;13.20;99.90
14397;DHT22;50653;47.810;13.022;2023-08-30T00:36:46;13.20;99.90
14397;DHT22;50653;47.810;13.022;2023-08-30T00:39:12;13.10;99.90
14397;DHT22;50653;47.810;13.022;2023-08-30T00:41:38;13.20;99.90
14397;DHT22;50653;47.810;13.022;2023-08-30T00:44:04;13.20;99.90
14397;DHT22;50653;47.810;13.022;2023-08-30T00:46:31;13.10;99.90
14397;DHT22;50653;47.810;13.022;2023-08-30T00:48:58;13.20;99.90
14397;DHT22;50653;47.810;13.022;2023-08-30T00:51:23;13.20;99.90
14397;DHT22;50653;47.810;13.022;2023-08-30T00:53:49;13.20;99.90
14397;DHT22;50653;47.810;13.022;2023-08-30T00:56:15;13.20;99.90
14397;DHT22;50653;47.810;13.022;2023-08-30T00:58:41;13.20;99.90
14397;DHT22;50653;47.810;13.022;2023-08-30T01:01:07;13.20;99.90
14397;DHT22;50653;47.810;13.022;2023-08-30T01:03:35;13.30;99.90
14397;DHT22;50653;47.810;13.022;2023-08-30T01:06:03;13.30;99.90
14397;DHT22;50653;47.810;13.022;2023-08-30T01:08:29;13.30;99.90
14397;DHT22;50653;47.810;13.022;2023-08-30T01:11:02;13.30;99.90
14397;DHT22;50653;47.810;13.022;2023-08-30T01:13:33;13.30;99.90
14397;DHT22;50653;47.810;13.022;2023-08-30T01:16:04;13.20;99.90
14397;DHT22;50653;47.810;13.022;2023-08-30T01:18:32;13.20;99.90
14397;DHT22;50653;47.810;13.022;2023-08-30T01:21:01;13.20;99.90
14397;DHT22;50653;47.810;13.022;2023-08-30T01:23:58;13.20;99.90
14397;DHT22;50653;47.810;13.022;2023-08-30T01:26:41;13.10;99.90
14397;DHT22;50653;47.810;13.022;2023-08-30T01:29:09;13.20;99.90
14397;DHT22;50653;47.810;13.022;2023-08-30T01:31:37;13.20;99.90
14397;DHT22;50653;47.810;13.022;2023-08-30T01:34:04;13.20;99.90
14397;DHT22;50653;47.810;13.022;2023-08-30T01:36:30;13.20;99.90
14397;DHT22;50653;47.810;13.022;2023-08-30T01:38:58;13.20;99.90
14397;DHT22;50653;47.810;13.022;2023-08-30T01:41:25;13.20;99.90
14397;DHT22;50653;47.810;13.022;2023-08-30T01:43:52;13.20;99.90
14397;DHT22;50653;47.810;13.022;2023-08-30T01:46:18;13.20;99.90
14397;DHT22;50653;47.810;13.022;2023-08-30T01:48:47;13.30;99.90
14397;DHT22;50653;47.810;13.022;2023-08-30T01:51:15;13.30;99.90
14397;DHT22;50653;47.810;13.022;2023-08-30T01:53:43;13.30;99.90
14397;DHT22;50653;47.810;13.022;2023-08-30T01:56:10;13.20;99.90
14397;DHT22;50653;47.810;13.022;2023-08-30T01:58:35;13.20;99.90
14397;DHT22;50653;47.810;13.022;2023-08-30T02:01:02;13.20;99.90
14397;DHT22;50653;47.810;13.022;2023-08-30T02:03:27;13.30;99.90
14397;DHT22;50653;47.810;13.022;2023-08-30T02:06:13;13.20;99.90
14397;DHT22;50653;47.810;13.022;2023-08-30T02:08:49;13.20;99.90
14397;DHT22;50653;47.810;13.022;2023-08-30T02:11:23;13.30;99.90
14397;DHT22;50653;47.810;13.022;2023-08-30T02:13:56;13.30;99.90
14397;DHT22;50653;47.810;13.022;2023-08-30T02:16:23;13.30;99.90
14397;DHT22;50653;47.810;13.022;2023-08-30T02:18:50;13.30;99.90
14397;DHT22;50653;47.810;13.022;2023-08-30T02:21:16;13.30;99.90
14397;DHT22;50653;47.810;13.022;2023-08-30T02:23:44;13.30;99.90
14397;DHT22;50653;47.810;13.022;2023-08-30T02:26:09;13.30;99.90
14397;DHT22;50653;47.810;13.022;2023-08-30T02:28:35;13.30;99.90
14397;DHT22;50653;47.810;13.022;2023-08-30T02:31:00;13.30;99.90
14397;DHT22;50653;47.810;13.022;2023-08-30T02:33:26;13.30;99.90
14397;DHT22;50653;47.810;13.022;2023-08-30T02:35:52;13.20;99.90
14397;DHT22;50653;47.810;13.022;2023-08-30T02:38:19;13.10;99.90
14397;DHT22;50653;47.810;13.022;2023-08-30T02:40:46;13.20;99.90
14397;DHT22;50653;47.810;13.022;2023-08-30T02:43:11;13.20;99.90
14397;DHT22;50653;47.810;13.022;2023-08-30T02:45:37;13.30;99.90
14397;DHT22;50653;47.810;13.022;2023-08-30T02:48:03;13.00;99.90
14397;DHT22;50653;47.810;13.022;2023-08-30T02:50:29;12.90;99.90
14397;DHT22;50653;47.810;13.022;2023-08-30T02:52:55;13.00;99.90
14397;DHT22;50653;47.810;13.022;2023-08-30T02:55:21;13.10;99.90
14397;DHT22;50653;47.810;13.022;2023-08-30T02:57:46;13.10;99.90
14397;DHT22;50653;47.810;13.022;2023-08-30T03:00:14;13.20;99.90
14397;DHT22;50653;47.810;13.022;2023-08-30T03:02:40;13.20;99.90
14397;DHT22;50653;47.810;13.022;2023-08-30T03:05:06;13.20;99.90
14397;DHT22;50653;47.810;13.022;2023-08-30T03:07:31;13.30;99.90
14397;DHT22;50653;47.810;13.022;2023-08-30T03:09:57;13.30;99.90
14397;DHT22;50653;47.810;13.022;2023-08-30T03:12:23;13.30;99.90
14397;DHT22;50653;47.810;13.022;2023-08-30T03:14:49;13.30;99.90
14397;DHT22;50653;47.810;13.022;2023-08-30T03:17:14;13.40;99.90
14397;DHT22;50653;47.810;13.022;2023-08-30T03:19:40;13.40;99.90
14397;DHT22;50653;47.810;13.022;2023-08-30T03:22:06;13.40;99.90
14397;DHT22;50653;47.810;13.022;2023-08-30T03:24:32;13.40;99.90
14397;DHT22;50653;47.810;13.022;2023-08-30T03:26:57;13.40;99.90
14397;DHT22;50653;47.810;13.022;2023-08-30T03:29:25;13.30;99.90
14397;DHT22;50653;47.810;13.022;2023-08-30T03:31:50;13.20;99.90
14397;DHT22;50653;47.810;13.022;2023-08-30T03:34:16;13.20;99.90
14397;DHT22;50653;47.810;13.022;2023-08-30T03:36:42;13.10;99.90
14397;DHT22;50653;47.810;13.022;2023-08-30T03:39:09;12.90;99.90
14397;DHT22;50653;47.810;13.022;2023-08-30T03:41:35;12.80;99.90
14397;DHT22;50653;47.810;13.022;2023-08-30T03:44:02;12.80;99.90
14397;DHT22;50653;47.810;13.022;2023-08-30T03:46:28;12.60;99.90
14397;DHT22;50653;47.810;13.022;2023-08-30T03:48:53;12.60;99.90
14397;DHT22;50653;47.810;13.022;2023-08-30T03:51:19;12.60;99.90
14397;DHT22;50653;47.810;13.022;2023-08-30T03:53:44;12.70;99.90
14397;DHT22;50653;47.810;13.022;2023-08-30T03:56:10;12.70;99.90
14397;DHT22;50653;47.810;13.022;2023-08-30T03:58:37;12.70;99.90
14397;DHT22;50653;47.810;13.022;2023-08-30T04:01:03;12.80;99.90
14397;DHT22;50653;47.810;13.022;2023-08-30T04:03:29;12.80;99.90
14397;DHT22;50653;47.810;13.022;2023-08-30T04:05:58;12.80;99.90
14397;DHT22;50653;47.810;13.022;2023-08-30T04:08:23;12.80;99.90
14397;DHT22;50653;47.810;13.022;2023-08-30T04:10:52;12.90;99.90
14397;DHT22;50653;47.810;13.022;2023-08-30T04:13:18;12.90;99.90
14397;DHT22;50653;47.810;13.022;2023-08-30T04:15:43;12.90;99.90
14397;DHT22;50653;47.810;13.022;2023-08-30T04:18:09;12.90;99.90
14397;DHT22;50653;47.810;13.022;2023-08-30T04:20:35;12.90;99.90
14397;DHT22;50653;47.810;13.022;2023-08-30T04:23:01;12.90;99.90
14397;DHT22;50653;47.810;13.022;2023-08-30T04:25:31;12.90;99.90
14397;DHT22;50653;47.810;13.022;2023-08-30T04:27:57;13.00;99.90
14397;DHT22;50653;47.810;13.022;2023-08-30T04:30:23;13.00;99.90
14397;DHT22;50653;47.810;13.022;2023-08-30T04:32:51;13.00;99.90
14397;DHT22;50653;47.810;13.022;2023-08-30T04:35:17;13.00;99.90
14397;DHT22;50653;47.810;13.022;2023-08-30T04:37:43;13.10;99.90
14397;DHT22;50653;47.810;13.022;2023-08-30T04:40:09;13.10;99.90
14397;DHT22;50653;47.810;13.022;2023-08-30T04:42:35;13.20;99.90
14397;DHT22;50653;47.810;13.022;2023-08-30T04:45:01;13.10;99.90
14397;DHT22;50653;47.810;13.022;2023-08-30T04:47:29;13.20;99.90
14397;DHT22;50653;47.810;13.022;2023-08-30T04:49:54;13.20;99.90
14397;DHT22;50653;47.810;13.022;2023-08-30T04:52:20;13.20;99.90
14397;DHT22;50653;47.810;13.022;2023-08-30T04:54:46;13.20;99.90
14397;DHT22;50653;47.810;13.022;2023-08-30T04:57:12;13.20;99.90
14397;DHT22;50653;47.810;13.022;2023-08-30T04:59:43;13.30;99.90
14397;DHT22;50653;47.810;13.022;2023-08-30T05:02:10;13.30;99.90
14397;DHT22;50653;47.810;13.022;2023-08-30T05:04:42;13.30;99.90
14397;DHT22;50653;47.810;13.022;2023-08-30T05:07:08;13.30;99.90
14397;DHT22;50653;47.810;13.022;2023-08-30T05:09:33;13.30;99.90
14397;DHT22;50653;47.810;13.022;2023-08-30T05:12:00;13.20;99.90
14397;DHT22;50653;47.810;13.022;2023-08-30T05:14:26;13.20;99.90
14397;DHT22;50653;47.810;13.022;2023-08-30T05:16:52;13.30;99.90
14397;DHT22;50653;47.810;13.022;2023-08-30T05:19:18;13.20;99.90
14397;DHT22;50653;47.810;13.022;2023-08-30T05:21:46;13.20;99.90
14397;DHT22;50653;47.810;13.022;2023-08-30T05:24:12;13.20;99.90
14397;DHT22;50653;47.810;13.022;2023-08-30T05:26:38;13.20;99.90
14397;DHT22;50653;47.810;13.022;2023-08-30T05:29:03;13.20;99.90
14397;DHT22;50653;47.810;13.022;2023-08-30T05:31:29;13.20;99.90
14397;DHT22;50653;47.810;13.022;2023-08-30T05:34:01;13.20;99.90
14397;DHT22;50653;47.810;13.022;2023-08-30T05:36:48;13.20;99.90
14397;DHT22;50653;47.810;13.022;2023-08-30T05:39:40;13.20;99.90
14397;DHT22;50653;47.810;13.022;2023-08-30T05:42:06;13.30;99.90
14397;DHT22;50653;47.810;13.022;2023-08-30T05:44:32;13.30;99.90
14397;DHT22;50653;47.810;13.022;2023-08-30T05:46:57;13.40;99.90
14397;DHT22;50653;47.810;13.022;2023-08-30T05:49:23;13.40;99.90
14397;DHT22;50653;47.810;13.022;2023-08-30T05:51:49;13.30;99.90
14397;DHT22;50653;47.810;13.022;2023-08-30T05:54:16;13.40;99.90
14397;DHT22;50653;47.810;13.022;2023-08-30T05:56:42;13.30;99.90
14397;DHT22;50653;47.810;13.022;2023-08-30T05:59:08;13.20;99.90
14397;DHT22;50653;47.810;13.022;2023-08-30T06:01:33;13.30;99.90
14397;DHT22;50653;47.810;13.022;2023-08-30T06:04:00;13.30;99.90
14397;DHT22;50653;47.810;13.022;2023-08-30T06:06:26;13.30;99.90
14397;DHT22;50653;47.810;13.022;2023-08-30T06:08:52;13.30;99.90
14397;DHT22;50653;47.810;13.022;2023-08-30T06:11:18;13.30;99.90
14397;DHT22;50653;47.810;13.022;2023-08-30T06:13:43;13.30;99.90
14397;DHT22;50653;47.810;13.022;2023-08-30T06:16:09;13.30;99.90
14397;DHT22;50653;47.810;13.022;2023-08-30T06:18:35;13.30;99.90
14397;DHT22;50653;47.810;13.022;2023-08-30T06:21:02;13.30;99.90
14397;DHT22;50653;47.810;13.022;2023-08-30T06:23:29;13.40;99.90
14397;DHT22;50653;47.810;13.022;2023-08-30T06:25:58;13.40;99.90
14397;DHT22;50653;47.810;13.022;2023-08-30T06:28:23;13.50;99.90
14397;DHT22;50653;47.810;13.022;2023-08-30T06:30:49;13.60;99.90
14397;DHT22;50653;47.810;13.022;2023-08-30T06:33:15;13.60;99.90
14397;DHT22;50653;47.810;13.022;2023-08-30T06:35:40;13.70;99.90
14397;DHT22;50653;47.810;13.022;2023-08-30T06:38:08;13.70;99.90
14397;DHT22;50653;47.810;13.022;2023-08-30T06:40:33;13.60;99.90
14397;DHT22;50653;47.810;13.022;2023-08-30T06:42:59;13.70;99.90
14397;DHT22;50653;47.810;13.022;2023-08-30T06:45:24;13.70;99.90
14397;DHT22;50653;47.810;13.022;2023-08-30T06:47:50;13.70;99.90
14397;DHT22;50653;47.810;13.022;2023-08-30T06:50:17;13.70;99.90
14397;DHT22;50653;47.810;13.022;2023-08-30T06:52:42;13.80;99.90
14397;DHT22;50653;47.810;13.022;2023-08-30T06:55:08;13.80;99.90
14397;DHT22;50653;47.810;13.022;2023-08-30T06:57:34;13.90;99.90
14397;DHT22;50653;47.810;13.022;2023-08-30T07:00:00;13.90;99.90
14397;DHT22;50653;47.810;13.022;2023-08-30T07:02:36;13.90;99.90
14397;DHT22;50653;47.810;13.022;2023-08-30T07:05:02;13.90;99.90
14397;DHT22;50653;47.810;13.022;2023-08-30T07:07:30;13.90;99.90
14397;DHT22;50653;47.810;13.022;2023-08-30T07:09:56;13.90;99.90
14397;DHT22;50653;47.810;13.022;2023-08-30T07:12:21;14.00;99.90
14397;DHT22;50653;47.810;13.022;2023-08-30T07:14:47;14.10;99.90
14397;DHT22;50653;47.810;13.022;2023-08-30T07:17:12;14.10;99.90
14397;DHT22;50653;47.810;13.022;2023-08-30T07:19:38;14.20;99.90
14397;DHT22;50653;47.810;13.022;2023-08-30T07:22:03;14.30;99.90
14397;DHT22;50653;47.810;13.022;2023-08-30T07:24:29;14.40;99.90
14397;DHT22;50653;47.810;13.022;2023-08-30T07:26:55;14.40;99.90
14397;DHT22;50653;47.810;13.022;2023-08-30T07:29:21;14.40;99.90
14397;DHT22;50653;47.810;13.022;2023-08-30T07:31:47;14.50;99.90
14397;DHT22;50653;47.810;13.022;2023-08-30T07:34:12;14.60;99.90
14397;DHT22;50653;47.810;13.022;2023-08-30T07:36:38;14.70;99.90
14397;DHT22;50653;47.810;13.022;2023-08-30T07:39:04;14.70;99.90
14397;DHT22;50653;47.810;13.022;2023-08-30T07:41:29;14.70;99.90
14397;DHT22;50653;47.810;13.022;2023-08-30T07:43:55;14.60;99.90
14397;DHT22;50653;47.810;13.022;2023-08-30T07:46:20;14.60;99.90
14397;DHT22;50653;47.810;13.022;2023-08-30T07:48:46;14.80;99.90
14397;DHT22;50653;47.810;13.022;2023-08-30T07:51:12;14.90;99.90
14397;DHT22;50653;47.810;13.022;2023-08-30T07:53:37;14.90;99.90
14397;DHT22;50653;47.810;13.022;2023-08-30T07:56:03;15.00;99.90
14397;DHT22;50653;47.810;13.022;2023-08-30T07:58:28;15.10;99.90
14397;DHT22;50653;47.810;13.022;2023-08-30T08:00:54;15.10;99.90
14397;DHT22;50653;47.810;13.022;2023-08-30T08:03:20;14.90;99.90
14397;DHT22;50653;47.810;13.022;2023-08-30T08:05:46;14.90;99.90
14397;DHT22;50653;47.810;13.022;2023-08-30T08:08:11;15.00;99.90
14397;DHT22;50653;47.810;13.022;2023-08-30T08:10:37;15.00;99.90
14397;DHT22;50653;47.810;13.022;2023-08-30T08:13:02;15.10;99.90
14397;DHT22;50653;47.810;13.022;2023-08-30T08:15:29;15.20;99.90
14397;DHT22;50653;47.810;13.022;2023-08-30T08:17:56;15.20;99.90
14397;DHT22;50653;47.810;13.022;2023-08-30T08:20:22;15.20;99.90
14397;DHT22;50653;47.810;13.022;2023-08-30T08:22:47;15.20;99.90
14397;DHT22;50653;47.810;13.022;2023-08-30T08:25:13;15.30;99.90
14397;DHT22;50653;47.810;13.022;2023-08-30T08:27:38;15.40;99.90
14397;DHT22;50653;47.810;13.022;2023-08-30T08:30:04;15.40;99.90
14397;DHT22;50653;47.810;13.022;2023-08-30T08:32:30;15.30;99.90
14397;DHT22;50653;47.810;13.022;2023-08-30T08:34:56;15.40;99.90
14397;DHT22;50653;47.810;13.022;2023-08-30T08:37:22;15.30;99.90
14397;DHT22;50653;47.810;13.022;2023-08-30T08:39:47;15.40;99.90
14397;DHT22;50653;47.810;13.022;2023-08-30T08:42:19;15.40;99.90
14397;DHT22;50653;47.810;13.022;2023-08-30T08:44:47;15.30;99.90
14397;DHT22;50653;47.810;13.022;2023-08-30T08:47:16;15.20;99.90
14397;DHT22;50653;47.810;13.022;2023-08-30T08:49:42;15.10;99.90
14397;DHT22;50653;47.810;13.022;2023-08-30T08:52:08;15.10;99.90
14397;DHT22;50653;47.810;13.022;2023-08-30T08:54:35;15.30;99.90
14397;DHT22;50653;47.810;13.022;2023-08-30T08:57:02;15.30;99.90
14397;DHT22;50653;47.810;13.022;2023-08-30T08:59:27;15.10;99.90
14397;DHT22;50653;47.810;13.022;2023-08-30T09:01:53;15.10;99.90
14397;DHT22;50653;47.810;13.022;2023-08-30T09:04:19;15.30;99.90
14397;DHT22;50653;47.810;13.022;2023-08-30T09:06:44;15.30;99.90
14397;DHT22;50653;47.810;13.022;2023-08-30T09:09:10;15.50;99.90
14397;DHT22;50653;47.810;13.022;2023-08-30T09:11:36;15.60;99.90
14397;DHT22;50653;47.810;13.022;2023-08-30T09:14:02;15.60;99.90
14397;DHT22;50653;47.810;13.022;2023-08-30T09:16:28;15.70;99.90
14397;DHT22;50653;47.810;13.022;2023-08-30T09:19:00;15.70;99.90
14397;DHT22;50653;47.810;13.022;2023-08-30T09:21:26;15.70;99.90
14397;DHT22;50653;47.810;13.022;2023-08-30T09:23:59;15.80;99.90
14397;DHT22;50653;47.810;13.022;2023-08-30T09:26:25;15.80;99.90
14397;DHT22;50653;47.810;13.022;2023-08-30T09:28:50;15.90;99.90
14397;DHT22;50653;47.810;13.022;2023-08-30T09:31:19;16.00;99.90
14397;DHT22;50653;47.810;13.022;2023-08-30T09:33:45;16.00;99.90
14397;DHT22;50653;47.810;13.022;2023-08-30T09:36:13;15.90;99.90
14397;DHT22;50653;47.810;13.022;2023-08-30T09:38:38;15.80;99.90
14397;DHT22;50653;47.810;13.022;2023-08-30T09:41:04;15.90;99.90
14397;DHT22;50653;47.810;13.022;2023-08-30T09:43:30;15.90;99.90
14397;DHT22;50653;47.810;13.022;2023-08-30T09:45:57;15.60;99.90
14397;DHT22;50653;47.810;13.022;2023-08-30T09:48:22;15.50;99.90
14397;DHT22;50653;47.810;13.022;2023-08-30T09:50:53;15.60;99.90
14397;DHT22;50653;47.810;13.022;2023-08-30T09:53:20;15.70;99.90
14397;DHT22;50653;47.810;13.022;2023-08-30T09:55:47;15.90;99.90
14397;DHT22;50653;47.810;13.022;2023-08-30T09:58:14;16.00;99.90
14397;DHT22;50653;47.810;13.022;2023-08-30T10:00:41;16.10;99.90
14397;DHT22;50653;47.810;13.022;2023-08-30T10:03:08;16.20;99.90
14397;DHT22;50653;47.810;13.022;2023-08-30T10:05:33;16.30;99.90
14397;DHT22;50653;47.810;13.022;2023-08-30T10:08:00;16.20;99.90
14397;DHT22;50653;47.810;13.022;2023-08-30T10:10:26;16.20;99.90
14397;DHT22;50653;47.810;13.022;2023-08-30T10:12:51;16.30;99.90
14397;DHT22;50653;47.810;13.022;2023-08-30T10:15:18;16.40;99.90
14397;DHT22;50653;47.810;13.022;2023-08-30T10:17:45;16.40;99.90
14397;DHT22;50653;47.810;13.022;2023-08-30T10:20:11;16.50;99.90
14397;DHT22;50653;47.810;13.022;2023-08-30T10:22:40;16.60;99.90
14397;DHT22;50653;47.810;13.022;2023-08-30T10:25:06;16.60;99.90
14397;DHT22;50653;47.810;13.022;2023-08-30T10:27:34;16.70;99.90
14397;DHT22;50653;47.810;13.022;2023-08-30T10:30:04;16.80;99.90
14397;DHT22;50653;47.810;13.022;2023-08-30T10:32:30;16.80;99.90
14397;DHT22;50653;47.810;13.022;2023-08-30T10:35:00;16.70;99.90
14397;DHT22;50653;47.810;13.022;2023-08-30T10:37:26;16.50;99.90
14397;DHT22;50653;47.810;13.022;2023-08-30T10:39:52;16.40;99.90
14397;DHT22;50653;47.810;13.022;2023-08-30T10:42:21;16.30;99.90
14397;DHT22;50653;47.810;13.022;2023-08-30T10:45:05;16.40;99.90
14397;DHT22;50653;47.810;13.022;2023-08-30T10:47:34;16.30;99.90
14397;DHT22;50653;47.810;13.022;2023-08-30T10:50:06;16.30;99.90
14397;DHT22;50653;47.810;13.022;2023-08-30T10:52:33;16.30;99.90
14397;DHT22;50653;47.810;13.022;2023-08-30T10:55:05;16.30;99.90
14397;DHT22;50653;47.810;13.022;2023-08-30T10:57:32;16.30;99.90
14397;DHT22;50653;47.810;13.022;2023-08-30T11:00:05;16.30;99.90
14397;DHT22;50653;47.810;13.022;2023-08-30T11:02:33;16.40;99.90
14397;DHT22;50653;47.810;13.022;2023-08-30T11:04:59;16.50;99.90
14397;DHT22;50653;47.810;13.022;2023-08-30T11:07:25;16.50;99.90
14397;DHT22;50653;47.810;13.022;2023-08-30T11:09:51;16.50;99.90
14397;DHT22;50653;47.810;13.022;2023-08-30T11:12:17;16.50;99.90
14397;DHT22;50653;47.810;13.022;2023-08-30T11:14:43;16.50;99.90
14397;DHT22;50653;47.810;13.022;2023-08-30T11:17:12;16.60;99.90
14397;DHT22;50653;47.810;13.022;2023-08-30T11:19:37;16.60;99.90
14397;DHT22;50653;47.810;13.022;2023-08-30T11:22:03;16.70;99.90
14397;DHT22;50653;47.810;13.022;2023-08-30T11:24:28;16.80;99.90
14397;DHT22;50653;47.810;13.022;2023-08-30T11:26:54;16.90;99.90
14397;DHT22;50653;47.810;13.022;2023-08-30T11:29:20;17.10;99.90
14397;DHT22;50653;47.810;13.022;2023-08-30T11:31:45;17.30;99.90
14397;DHT22;50653;47.810;13.022;2023-08-30T11:34:12;17.40;99.90
14397;DHT22;50653;47.810;13.022;2023-08-30T11:36:37;17.40;99.90
14397;DHT22;50653;47.810;13.022;2023-08-30T11:39:03;17.50;99.90
14397;DHT22;50653;47.810;13.022;2023-08-30T11:41:29;17.40;99.90
14397;DHT22;50653;47.810;13.022;2023-08-30T11:43:56;17.40;99.90
14397;DHT22;50653;47.810;13.022;2023-08-30T11:46:23;17.40;99.90
14397;DHT22;50653;47.810;13.022;2023-08-30T11:48:50;17.30;99.90
14397;DHT22;50653;47.810;13.022;2023-08-30T11:51:16;17.20;99.90
14397;DHT22;50653;47.810;13.022;2023-08-30T11:53:41;17.10;99.90
14397;DHT22;50653;47.810;13.022;2023-08-30T11:56:07;17.10;99.90
14397;DHT22;50653;47.810;13.022;2023-08-30T11:58:33;17.20;99.90
14397;DHT22;50653;47.810;13.022;2023-08-30T12:00:59;17.20;99.90
14397;DHT22;50653;47.810;13.022;2023-08-30T12:03:28;17.20;99.90
14397;DHT22;50653;47.810;13.022;2023-08-30T12:05:53;17.10;99.90
14397;DHT22;50653;47.810;13.022;2023-08-30T12:08:27;17.20;99.90
14397;DHT22;50653;47.810;13.022;2023-08-30T12:10:53;17.20;99.90
14397;DHT22;50653;47.810;13.022;2023-08-30T12:13:23;17.20;99.90
14397;DHT22;50653;47.810;13.022;2023-08-30T12:15:50;17.10;99.90
14397;DHT22;50653;47.810;13.022;2023-08-30T12:18:15;17.00;99.90
14397;DHT22;50653;47.810;13.022;2023-08-30T12:23:26;17.10;99.90
14397;DHT22;50653;47.810;13.022;2023-08-30T12:28:27;17.00;99.90
14397;DHT22;50653;47.810;13.022;2023-08-30T12:30:53;17.00;99.90
14397;DHT22;50653;47.810;13.022;2023-08-30T12:33:18;17.00;99.90
14397;DHT22;50653;47.810;13.022;2023-08-30T12:35:44;17.00;99.90
14397;DHT22;50653;47.810;13.022;2023-08-30T12:38:09;17.00;99.90
14397;DHT22;50653;47.810;13.022;2023-08-30T12:40:37;17.00;99.90
14397;DHT22;50653;47.810;13.022;2023-08-30T12:43:03;17.00;99.90
14397;DHT22;50653;47.810;13.022;2023-08-30T12:45:29;17.00;99.90
14397;DHT22;50653;47.810;13.022;2023-08-30T12:47:54;17.10;99.90
14397;DHT22;50653;47.810;13.022;2023-08-30T12:50:21;17.10;99.90
14397;DHT22;50653;47.810;13.022;2023-08-30T12:52:47;17.20;99.90
14397;DHT22;50653;47.810;13.022;2023-08-30T12:55:13;17.30;99.90
14397;DHT22;50653;47.810;13.022;2023-08-30T12:57:38;17.20;99.90
14397;DHT22;50653;47.810;13.022;2023-08-30T13:00:04;17.20;99.90
14397;DHT22;50653;47.810;13.022;2023-08-30T13:02:30;17.30;99.90
14397;DHT22;50653;47.810;13.022;2023-08-30T13:04:56;17.20;99.90
14397;DHT22;50653;47.810;13.022;2023-08-30T13:07:21;17.40;99.90
14397;DHT22;50653;47.810;13.022;2023-08-30T13:09:47;17.40;99.90
14397;DHT22;50653;47.810;13.022;2023-08-30T13:12:12;17.40;99.90
14397;DHT22;50653;47.810;13.022;2023-08-30T13:14:38;17.60;99.90
14397;DHT22;50653;47.810;13.022;2023-08-30T13:17:03;17.60;99.90
14397;DHT22;50653;47.810;13.022;2023-08-30T13:19:29;17.60;99.90
14397;DHT22;50653;47.810;13.022;2023-08-30T13:21:54;17.70;99.90
14397;DHT22;50653;47.810;13.022;2023-08-30T13:24:20;17.70;99.90
14397;DHT22;50653;47.810;13.022;2023-08-30T13:26:45;17.80;99.90
14397;DHT22;50653;47.810;13.022;2023-08-30T13:29:11;17.80;99.90
14397;DHT22;50653;47.810;13.022;2023-08-30T13:31:37;17.90;99.90
14397;DHT22;50653;47.810;13.022;2023-08-30T13:34:02;18.00;99.90
14397;DHT22;50653;47.810;13.022;2023-08-30T13:36:28;17.90;99.90
14397;DHT22;50653;47.810;13.022;2023-08-30T13:38:54;18.00;99.90
14397;DHT22;50653;47.810;13.022;2023-08-30T13:41:19;18.00;99.90
14397;DHT22;50653;47.810;13.022;2023-08-30T13:43:45;18.00;99.90
14397;DHT22;50653;47.810;13.022;2023-08-30T13:46:10;18.10;99.90
14397;DHT22;50653;47.810;13.022;2023-08-30T13:48:36;18.10;99.90
14397;DHT22;50653;47.810;13.022;2023-08-30T13:51:02;18.10;99.90
14397;DHT22;50653;47.810;13.022;2023-08-30T13:53:27;18.20;99.90
14397;DHT22;50653;47.810;13.022;2023-08-30T13:55:53;18.20;99.90
14397;DHT22;50653;47.810;13.022;2023-08-30T13:58:19;18.20;99.90
14397;DHT22;50653;47.810;13.022;2023-08-30T14:00:44;18.20;99.90
14397;DHT22;50653;47.810;13.022;2023-08-30T14:03:10;18.20;99.90
14397;DHT22;50653;47.810;13.022;2023-08-30T14:05:36;18.10;99.90
14397;DHT22;50653;47.810;13.022;2023-08-30T14:08:05;18.20;99.90
14397;DHT22;50653;47.810;13.022;2023-08-30T14:10:31;18.10;99.90
14397;DHT22;50653;47.810;13.022;2023-08-30T14:12:57;18.10;99.90
14397;DHT22;50653;47.810;13.022;2023-08-30T14:15:22;18.00;99.90
14397;DHT22;50653;47.810;13.022;2023-08-30T14:17:48;18.00;99.90
14397;DHT22;50653;47.810;13.022;2023-08-30T14:20:13;17.90;99.90
14397;DHT22;50653;47.810;13.022;2023-08-30T14:22:39;17.80;99.90
14397;DHT22;50653;47.810;13.022;2023-08-30T14:25:05;17.80;99.90
14397;DHT22;50653;47.810;13.022;2023-08-30T14:27:30;17.70;99.90
14397;DHT22;50653;47.810;13.022;2023-08-30T14:29:56;17.70;99.90
14397;DHT22;50653;47.810;13.022;2023-08-30T14:32:21;17.70;99.90
14397;DHT22;50653;47.810;13.022;2023-08-30T14:34:47;17.60;99.90
14397;DHT22;50653;47.810;13.022;2023-08-30T14:37:12;17.70;99.90
14397;DHT22;50653;47.810;13.022;2023-08-30T14:39:38;17.60;99.90
14397;DHT22;50653;47.810;13.022;2023-08-30T14:42:04;17.60;99.90
14397;DHT22;50653;47.810;13.022;2023-08-30T14:44:29;17.60;99.90
14397;DHT22;50653;47.810;13.022;2023-08-30T14:46:55;17.50;99.90
14397;DHT22;50653;47.810;13.022;2023-08-30T14:49:20;17.50;99.90
14397;DHT22;50653;47.810;13.022;2023-08-30T14:51:46;17.50;99.90
14397;DHT22;50653;47.810;13.022;2023-08-30T14:54:11;17.50;99.90
14397;DHT22;50653;47.810;13.022;2023-08-30T14:56:37;17.60;99.90
14397;DHT22;50653;47.810;13.022;2023-08-30T14:59:03;17.60;99.90
14397;DHT22;50653;47.810;13.022;2023-08-30T15:01:28;17.50;99.90
14397;DHT22;50653;47.810;13.022;2023-08-30T15:03:54;17.50;99.90
14397;DHT22;50653;47.810;13.022;2023-08-30T15:06:19;17.30;99.90
14397;DHT22;50653;47.810;13.022;2023-08-30T15:08:45;17.30;99.90
14397;DHT22;50653;47.810;13.022;2023-08-30T15:11:13;17.30;99.90
14397;DHT22;50653;47.810;13.022;2023-08-30T15:13:39;17.30;99.90
14397;DHT22;50653;47.810;13.022;2023-08-30T15:16:04;17.30;99.90